Time;durP1;ratioP1;P1;durP2;ratioP2;P2;SDS_P1;SDS_P2;PMS_P1;PMS_P2;Temp;Humidity;BMP_temperature;BMP_pressure;BME280_temperature;BME280_humidity;BME280_pressure;Samples;Min_cycle;Max_cycle;Signal;HPM_P1;HPM_P2
2023/05/29 00:00:07;;;;;;;5.97;3.50;;;;;;;;;;5031099;28;20207;-33
2023/05/29 00:02:36;;;;;;;7.53;4.17;;;;;;;;;;5031183;28;20219;-32
2023/05/29 00:05:03;;;;;;;5.20;3.30;;;;;;;;;;5035198;28;20212;-32
2023/05/29 00:07:31;;;;;;;4.63;3.43;;;;;;;;;;5028866;28;20204;-32
2023/05/29 00:09:58;;;;;;;5.67;3.50;;;;;;;;;;5025312;28;20258;-35
2023/05/29 00:12:25;;;;;;;4.67;3.40;;;;;;;;;;5023668;28;20235;-31
2023/05/29 00:14:52;;;;;;;5.73;3.83;;;;;;;;;;5042667;28;20207;-33
2023/05/29 00:17:20;;;;;;;5.03;3.50;;;;;;;;;;5024413;28;20231;-33
2023/05/29 00:19:49;;;;;;;4.53;3.33;;;;;;;;;;5028467;28;20223;-32
2023/05/29 00:22:16;;;;;;;9.70;3.80;;;;;;;;;;5048641;28;20645;-32
2023/05/29 00:24:43;;;;;;;6.27;3.60;;;;;;;;;;5031511;28;20205;-32
2023/05/29 00:27:10;;;;;;;5.83;3.60;;;;;;;;;;5042574;28;20221;-33
2023/05/29 00:29:38;;;;;;;5.10;3.47;;;;;;;;;;5028842;28;20263;-34
2023/05/29 00:32:05;;;;;;;6.83;4.00;;;;;;;;;;5019579;28;20213;-35
2023/05/29 00:34:33;;;;;;;3.93;3.10;;;;;;;;;;5040754;28;20205;-34
2023/05/29 00:37:01;;;;;;;5.53;3.67;;;;;;;;;;5048160;28;20225;-31
2023/05/29 00:39:28;;;;;;;6.07;3.77;;;;;;;;;;5048592;28;20206;-34
2023/05/29 00:41:55;;;;;;;6.10;3.63;;;;;;;;;;5027530;28;20212;-35
2023/05/29 00:44:23;;;;;;;5.70;3.67;;;;;;;;;;5033799;28;20211;-35
2023/05/29 00:46:51;;;;;;;6.20;3.43;;;;;;;;;;5022499;28;20325;-31
2023/05/29 00:49:18;;;;;;;4.50;3.20;;;;;;;;;;5030928;28;20235;-29
2023/05/29 00:51:45;;;;;;;6.10;3.70;;;;;;;;;;5033401;28;20596;-32
2023/05/29 00:54:16;;;;;;;8.37;4.17;;;;;;;;;;5025868;28;20207;-29
2023/05/29 00:56:43;;;;;;;4.37;3.47;;;;;;;;;;5031275;28;20600;-33
2023/05/29 00:59:10;;;;;;;5.10;3.53;;;;;;;;;;5043605;28;20206;-33
2023/05/29 01:01:38;;;;;;;6.17;3.90;;;;;;;;;;5031271;28;20213;-35
2023/05/29 01:04:07;;;;;;;7.57;3.70;;;;;;;;;;5040491;28;20209;-33
2023/05/29 01:06:34;;;;;;;7.47;4.20;;;;;;;;;;5035486;28;20226;-35
2023/05/29 01:09:01;;;;;;;4.43;3.87;;;;;;;;;;5026345;28;20207;-32
2023/05/29 01:11:40;;;;;;;7.63;4.23;;;;;;;;;;5027062;28;20611;-34
2023/05/29 01:14:10;;;;;;;4.93;3.70;;;;;;;;;;5042248;28;20660;-33
2023/05/29 01:16:39;;;;;;;6.50;3.97;;;;;;;;;;5037503;28;20223;-34
2023/05/29 01:19:18;;;;;;;5.63;3.57;;;;;;;;;;5031783;28;20442;-34
2023/05/29 01:21:53;;;;;;;4.60;3.70;;;;;;;;;;5034873;28;20210;-33
2023/05/29 01:24:24;;;;;;;6.67;3.90;;;;;;;;;;5030851;28;20202;-32
2023/05/29 01:26:55;;;;;;;5.67;4.10;;;;;;;;;;5026094;28;20426;-30
2023/05/29 01:29:24;;;;;;;6.27;3.80;;;;;;;;;;5025933;28;20207;-34
2023/05/29 01:31:51;;;;;;;8.67;4.03;;;;;;;;;;5031165;28;20669;-32
2023/05/29 01:34:18;;;;;;;6.33;3.83;;;;;;;;;;5039596;28;20202;-33
2023/05/29 01:36:46;;;;;;;5.17;3.77;;;;;;;;;;5050452;28;20223;-31
2023/05/29 01:39:14;;;;;;;6.00;3.53;;;;;;;;;;5051026;28;20260;-30
2023/05/29 01:41:41;;;;;;;5.30;4.07;;;;;;;;;;5025175;28;20254;-33
2023/05/29 01:44:10;;;;;;;5.50;3.80;;;;;;;;;;5032341;28;20240;-35
2023/05/29 01:46:38;;;;;;;5.53;3.80;;;;;;;;;;5030935;28;20232;-33
2023/05/29 01:49:06;;;;;;;5.77;3.63;;;;;;;;;;5034179;28;20210;-34
2023/05/29 01:51:33;;;;;;;5.53;4.00;;;;;;;;;;5045312;28;20206;-34
2023/05/29 01:54:00;;;;;;;6.13;3.97;;;;;;;;;;5045095;28;20225;-33
2023/05/29 01:56:28;;;;;;;3.63;3.13;;;;;;;;;;5018934;28;20239;-34
2023/05/29 01:58:55;;;;;;;4.13;3.73;;;;;;;;;;5045564;28;20232;-36
2023/05/29 02:01:24;;;;;;;5.60;4.00;;;;;;;;;;5038752;28;20203;-34
2023/05/29 02:03:51;;;;;;;4.37;3.50;;;;;;;;;;5037577;28;20211;-32
2023/05/29 02:06:19;;;;;;;6.50;3.77;;;;;;;;;;5030247;28;20265;-31
2023/05/29 02:08:46;;;;;;;5.60;3.67;;;;;;;;;;5030522;28;20210;-34
2023/05/29 02:11:13;;;;;;;4.90;3.73;;;;;;;;;;5030465;28;20193;-34
2023/05/29 02:13:40;;;;;;;4.40;3.37;;;;;;;;;;5032945;28;20198;-33
2023/05/29 02:16:07;;;;;;;3.97;3.23;;;;;;;;;;5039499;28;20572;-32
2023/05/29 02:18:36;;;;;;;5.57;3.67;;;;;;;;;;5034334;28;20371;-35
2023/05/29 02:21:03;;;;;;;6.73;3.70;;;;;;;;;;5029865;28;20226;-35
2023/05/29 02:23:30;;;;;;;7.07;3.63;;;;;;;;;;5025760;28;20213;-33
2023/05/29 02:25:57;;;;;;;6.53;3.70;;;;;;;;;;5026077;28;20231;-34
2023/05/29 02:28:25;;;;;;;4.70;3.43;;;;;;;;;;5030158;28;20194;-33
2023/05/29 02:30:53;;;;;;;3.93;3.53;;;;;;;;;;5026518;28;20641;-30
2023/05/29 02:33:20;;;;;;;3.83;3.40;;;;;;;;;;5038314;28;20207;-35
2023/05/29 02:35:48;;;;;;;4.80;3.70;;;;;;;;;;5032883;28;20222;-32
2023/05/29 02:38:15;;;;;;;4.53;3.00;;;;;;;;;;5027813;28;20226;-33
2023/05/29 02:40:42;;;;;;;5.90;3.63;;;;;;;;;;5025495;28;20219;-33
2023/05/29 02:43:11;;;;;;;4.47;3.60;;;;;;;;;;5038283;28;20199;-34
2023/05/29 02:45:38;;;;;;;5.23;3.87;;;;;;;;;;5028959;28;20226;-32
2023/05/29 02:48:05;;;;;;;5.43;3.30;;;;;;;;;;5036722;28;20588;-34
2023/05/29 02:50:32;;;;;;;6.87;3.50;;;;;;;;;;5039471;28;20214;-32
2023/05/29 02:53:00;;;;;;;3.67;3.13;;;;;;;;;;5031818;28;20222;-34
2023/05/29 02:57:56;;;;;;;4.13;3.40;;;;;;;;;;5063281;28;20233;-29
2023/05/29 03:00:23;;;;;;;4.60;3.30;;;;;;;;;;5069425;28;20206;-27
2023/05/29 03:02:50;;;;;;;5.13;3.30;;;;;;;;;;5058208;28;20209;-27
2023/05/29 03:05:17;;;;;;;5.27;3.30;;;;;;;;;;5060146;28;20198;-28
2023/05/29 03:07:44;;;;;;;6.60;2.93;;;;;;;;;;5069284;28;20205;-27
2023/05/29 03:10:17;;;;;;;4.00;3.00;;;;;;;;;;5061758;28;20209;-27
2023/05/29 03:12:44;;;;;;;4.17;3.27;;;;;;;;;;5031476;28;20261;-25
2023/05/29 03:15:12;;;;;;;3.40;2.90;;;;;;;;;;5064298;28;20259;-30
2023/05/29 03:17:39;;;;;;;5.73;3.30;;;;;;;;;;5044972;28;20221;-28
2023/05/29 03:20:07;;;;;;;5.80;2.97;;;;;;;;;;5059077;28;20232;-28
2023/05/29 03:22:35;;;;;;;5.70;3.43;;;;;;;;;;5068486;28;20231;-27
2023/05/29 03:25:02;;;;;;;4.10;3.17;;;;;;;;;;5068155;28;20205;-27
2023/05/29 03:27:30;;;;;;;5.37;3.63;;;;;;;;;;5043241;28;20198;-25
2023/05/29 03:29:58;;;;;;;4.50;2.97;;;;;;;;;;5065030;28;20197;-25
2023/05/29 03:32:25;;;;;;;4.47;3.13;;;;;;;;;;5043709;28;20201;-27
2023/05/29 03:34:52;;;;;;;4.27;3.00;;;;;;;;;;5056721;28;20205;-27
2023/05/29 03:37:19;;;;;;;4.53;2.90;;;;;;;;;;5048423;28;20222;-25
2023/05/29 03:39:47;;;;;;;5.27;3.07;;;;;;;;;;5048986;28;20221;-25
2023/05/29 03:42:14;;;;;;;5.00;2.90;;;;;;;;;;5044442;28;20237;-27
2023/05/29 03:44:43;;;;;;;4.03;2.77;;;;;;;;;;5046801;28;20202;-26
2023/05/29 03:47:10;;;;;;;3.13;2.83;;;;;;;;;;5053516;28;20222;-25
2023/05/29 03:49:37;;;;;;;6.27;3.57;;;;;;;;;;5061682;28;20206;-27
2023/05/29 03:52:05;;;;;;;4.57;3.10;;;;;;;;;;5052660;28;20198;-28
2023/05/29 03:54:32;;;;;;;3.27;2.60;;;;;;;;;;5051406;28;20198;-27
2023/05/29 03:56:59;;;;;;;5.07;2.87;;;;;;;;;;5045283;28;20246;-27
2023/05/29 03:59:26;;;;;;;4.13;3.17;;;;;;;;;;5046535;28;20205;-27
2023/05/29 04:01:54;;;;;;;4.47;3.00;;;;;;;;;;5041539;28;20210;-27
2023/05/29 04:04:21;;;;;;;6.67;3.47;;;;;;;;;;5068878;28;20201;-24
2023/05/29 04:06:48;;;;;;;5.90;3.10;;;;;;;;;;5071284;28;20221;-27
2023/05/29 04:09:16;;;;;;;3.50;2.83;;;;;;;;;;5072144;28;20201;-26
2023/05/29 04:11:44;;;;;;;4.20;3.30;;;;;;;;;;5048321;28;20203;-26
2023/05/29 04:14:11;;;;;;;3.83;2.47;;;;;;;;;;5064801;28;20214;-24
2023/05/29 04:16:38;;;;;;;6.97;3.80;;;;;;;;;;5051044;28;20252;-27
2023/05/29 04:19:07;;;;;;;5.30;3.53;;;;;;;;;;5065206;28;20244;-27
2023/05/29 04:21:34;;;;;;;3.70;3.30;;;;;;;;;;5051047;28;20206;-27
2023/05/29 04:24:01;;;;;;;4.83;3.30;;;;;;;;;;5051136;28;20244;-27
2023/05/29 04:26:28;;;;;;;3.90;2.87;;;;;;;;;;5043947;28;20222;-27
2023/05/29 04:28:57;;;;;;;6.17;3.80;;;;;;;;;;5048920;28;20210;-25
2023/05/29 04:31:25;;;;;;;4.13;2.70;;;;;;;;;;5054320;28;20265;-26
2023/05/29 04:33:54;;;;;;;4.17;3.27;;;;;;;;;;5062711;28;20235;-24
2023/05/29 04:36:25;;;;;;;3.73;2.53;;;;;;;;;;5055904;28;20229;-28
2023/05/29 04:38:52;;;;;;;3.67;2.80;;;;;;;;;;5055186;28;20296;-24
2023/05/29 04:41:19;;;;;;;3.97;3.03;;;;;;;;;;5053200;28;20212;-26
2023/05/29 04:43:46;;;;;;;3.13;2.80;;;;;;;;;;5050957;28;20202;-29
2023/05/29 04:46:15;;;;;;;5.20;2.83;;;;;;;;;;5045419;28;20221;-33
2023/05/29 04:48:42;;;;;;;4.83;3.27;;;;;;;;;;5053462;28;20335;-32
2023/05/29 04:51:10;;;;;;;6.20;3.13;;;;;;;;;;5059995;28;20213;-35
2023/05/29 04:53:39;;;;;;;3.53;3.00;;;;;;;;;;5053498;28;20300;-29
2023/05/29 04:56:07;;;;;;;4.47;2.90;;;;;;;;;;5049610;28;20234;-30
2023/05/29 04:58:34;;;;;;;7.10;3.20;;;;;;;;;;5047463;28;20324;-36
2023/05/29 05:01:02;;;;;;;3.80;3.30;;;;;;;;;;5065327;28;20202;-28
2023/05/29 05:03:30;;;;;;;3.90;3.10;;;;;;;;;;5061611;28;20288;-29
2023/05/29 05:06:02;;;;;;;5.10;3.03;;;;;;;;;;5065282;28;20225;-30
2023/05/29 05:08:30;;;;;;;5.53;3.23;;;;;;;;;;5074241;28;20197;-33
2023/05/29 05:10:59;;;;;;;4.03;3.20;;;;;;;;;;5062798;28;20206;-33
2023/05/29 05:13:26;;;;;;;5.47;3.20;;;;;;;;;;5042864;28;20212;-29
2023/05/29 05:15:53;;;;;;;5.97;3.27;;;;;;;;;;5055470;28;20226;-33
2023/05/29 05:18:20;;;;;;;4.80;3.43;;;;;;;;;;5052399;28;20223;-31
2023/05/29 05:20:47;;;;;;;4.50;3.70;;;;;;;;;;5073704;28;20200;-29
2023/05/29 05:23:14;;;;;;;4.93;3.47;;;;;;;;;;5074031;28;20206;-30
2023/05/29 05:25:41;;;;;;;5.07;3.43;;;;;;;;;;5045846;28;20223;-30
2023/05/29 05:28:11;;;;;;;5.07;3.87;;;;;;;;;;5072446;28;20208;-34
2023/05/29 05:30:38;;;;;;;4.80;3.30;;;;;;;;;;5069497;28;20213;-36
2023/05/29 05:33:05;;;;;;;4.30;3.77;;;;;;;;;;5053176;28;20290;-36
2023/05/29 05:35:32;;;;;;;4.80;3.77;;;;;;;;;;5058871;28;20236;-33
2023/05/29 05:38:00;;;;;;;6.50;4.30;;;;;;;;;;5053984;28;20233;-31
2023/05/29 05:40:27;;;;;;;5.67;4.00;;;;;;;;;;5046746;28;20206;-36
2023/05/29 05:42:54;;;;;;;5.87;4.37;;;;;;;;;;5051843;28;20226;-32
2023/05/29 05:45:23;;;;;;;7.60;4.47;;;;;;;;;;5052233;28;20296;-32
2023/05/29 05:47:50;;;;;;;6.13;4.17;;;;;;;;;;5047798;28;20221;-37
2023/05/29 05:50:17;;;;;;;8.10;4.27;;;;;;;;;;5062109;28;20221;-37
2023/05/29 05:52:45;;;;;;;8.97;4.57;;;;;;;;;;5053996;28;20202;-36
2023/05/29 05:55:12;;;;;;;7.40;4.83;;;;;;;;;;5045705;28;20231;-31
2023/05/29 05:57:39;;;;;;;6.80;4.37;;;;;;;;;;5058262;28;20214;-33
2023/05/29 06:00:09;;;;;;;6.43;4.60;;;;;;;;;;5062479;28;20215;-38
2023/05/29 06:02:38;;;;;;;7.00;4.23;;;;;;;;;;5045110;28;20212;-30
2023/05/29 06:05:07;;;;;;;7.43;4.50;;;;;;;;;;5052288;28;20203;-34
2023/05/29 06:07:34;;;;;;;7.37;4.27;;;;;;;;;;5053080;28;20222;-30
2023/05/29 06:10:01;;;;;;;5.13;4.33;;;;;;;;;;5050404;28;20201;-30
2023/05/29 06:12:28;;;;;;;7.13;4.80;;;;;;;;;;5063464;28;20400;-33
2023/05/29 06:14:56;;;;;;;8.70;4.70;;;;;;;;;;5055433;28;20235;-35
2023/05/29 06:17:23;;;;;;;8.53;4.53;;;;;;;;;;5050897;28;20234;-35
2023/05/29 06:19:51;;;;;;;5.67;4.47;;;;;;;;;;5051671;28;20297;-35
2023/05/29 06:22:19;;;;;;;6.37;4.10;;;;;;;;;;5072843;28;20217;-33
2023/05/29 06:24:46;;;;;;;5.77;4.53;;;;;;;;;;5072810;28;20211;-31
2023/05/29 06:27:13;;;;;;;7.33;4.43;;;;;;;;;;5050015;28;20222;-34
2023/05/29 06:29:40;;;;;;;7.30;4.40;;;;;;;;;;5052308;28;20282;-29
2023/05/29 06:32:07;;;;;;;6.73;4.70;;;;;;;;;;5051683;28;20217;-28
2023/05/29 06:34:34;;;;;;;7.47;4.73;;;;;;;;;;5058294;28;20204;-29
2023/05/29 06:37:03;;;;;;;6.57;4.77;;;;;;;;;;5074051;28;20234;-34
2023/05/29 06:39:30;;;;;;;6.40;3.93;;;;;;;;;;5062040;28;20273;-31
2023/05/29 06:41:57;;;;;;;5.40;4.03;;;;;;;;;;5050786;28;20213;-31
2023/05/29 06:44:24;;;;;;;7.40;4.57;;;;;;;;;;5065609;28;20549;-32
2023/05/29 06:46:51;;;;;;;5.10;3.67;;;;;;;;;;5055313;28;20232;-36
2023/05/29 06:49:18;;;;;;;4.10;3.60;;;;;;;;;;5069709;28;20202;-30
2023/05/29 06:51:46;;;;;;;7.70;4.13;;;;;;;;;;5056545;28;20205;-30
2023/05/29 06:54:14;;;;;;;5.23;4.13;;;;;;;;;;5048847;28;20213;-33
2023/05/29 06:56:42;;;;;;;6.17;3.90;;;;;;;;;;5033568;28;20234;-31
2023/05/29 06:59:09;;;;;;;7.97;4.00;;;;;;;;;;5062494;28;20224;-36
2023/05/29 07:01:36;;;;;;;6.30;3.77;;;;;;;;;;5056766;28;20206;-37
2023/05/29 07:04:03;;;;;;;6.77;4.00;;;;;;;;;;5055811;28;20209;-33
2023/05/29 07:06:30;;;;;;;7.07;3.80;;;;;;;;;;5066096;28;20227;-29
2023/05/29 07:08:57;;;;;;;4.23;3.57;;;;;;;;;;5072416;28;20211;-30
2023/05/29 07:11:26;;;;;;;4.75;3.40;;;;;;;;;;5050491;28;20209;-35
2023/05/29 07:13:55;;;;;;;3.70;3.17;;;;;;;;;;5067526;28;20478;-37
2023/05/29 07:16:22;;;;;;;5.65;3.60;;;;;;;;;;5044924;28;20238;-36
2023/05/29 07:18:49;;;;;;;4.43;3.72;;;;;;;;;;5051970;28;20218;-35
2023/05/29 07:21:16;;;;;;;5.00;3.55;;;;;;;;;;5054512;28;20288;-34
2023/05/29 07:23:43;;;;;;;7.30;3.70;;;;;;;;;;5070960;28;20214;-30
2023/05/29 07:26:10;;;;;;;7.72;3.97;;;;;;;;;;5045323;28;20286;-33
2023/05/29 07:28:39;;;;;;;4.47;3.40;;;;;;;;;;5058482;28;20194;-31
2023/05/29 07:31:06;;;;;;;5.35;3.22;;;;;;;;;;5062018;28;20207;-37
2023/05/29 07:33:33;;;;;;;4.30;3.30;;;;;;;;;;5053788;28;20200;-30
2023/05/29 07:36:00;;;;;;;6.00;4.00;;;;;;;;;;5062550;28;20219;-33
2023/05/29 07:38:27;;;;;;;6.00;3.60;;;;;;;;;;5052858;28;20275;-31
2023/05/29 07:40:54;;;;;;;5.30;3.53;;;;;;;;;;5046024;28;20207;-35
2023/05/29 07:43:21;;;;;;;4.80;3.38;;;;;;;;;;5064545;28;20203;-33
2023/05/29 07:45:50;;;;;;;4.28;3.35;;;;;;;;;;5063935;28;20267;-31
2023/05/29 07:48:17;;;;;;;5.38;3.38;;;;;;;;;;5050118;28;20201;-36
2023/05/29 07:50:44;;;;;;;5.93;3.70;;;;;;;;;;5051521;28;20223;-32
2023/05/29 07:53:11;;;;;;;5.22;3.42;;;;;;;;;;5051871;28;20209;-35
2023/05/29 07:55:38;;;;;;;6.95;3.45;;;;;;;;;;5040094;28;20230;-36
2023/05/29 07:58:05;;;;;;;7.00;3.40;;;;;;;;;;5048522;28;20218;-35
2023/05/29 08:00:33;;;;;;;5.50;3.55;;;;;;;;;;5071593;28;20249;-33
2023/05/29 08:03:02;;;;;;;3.97;3.40;;;;;;;;;;5052417;28;20231;-33
2023/05/29 08:05:31;;;;;;;5.05;3.30;;;;;;;;;;5055710;28;20224;-33
2023/05/29 08:07:58;;;;;;;4.68;3.33;;;;;;;;;;5056066;28;20270;-38
2023/05/29 08:10:26;;;;;;;6.03;3.83;;;;;;;;;;5053402;28;20263;-32
2023/05/29 08:12:53;;;;;;;4.97;3.35;;;;;;;;;;5051450;28;20258;-37
2023/05/29 08:15:20;;;;;;;6.25;3.80;;;;;;;;;;5062706;28;20227;-33
2023/05/29 08:17:47;;;;;;;4.85;4.18;;;;;;;;;;5055453;28;20211;-33
2023/05/29 08:20:16;;;;;;;5.15;3.55;;;;;;;;;;5042421;28;20221;-35
2023/05/29 08:22:43;;;;;;;6.30;3.58;;;;;;;;;;5075598;28;20216;-36
2023/05/29 08:25:10;;;;;;;3.88;3.15;;;;;;;;;;5055434;28;20210;-36
2023/05/29 08:27:37;;;;;;;5.15;3.67;;;;;;;;;;5074788;28;20203;-37
2023/05/29 08:30:05;;;;;;;7.18;3.85;;;;;;;;;;5075585;28;20200;-36
2023/05/29 08:32:32;;;;;;;5.05;3.45;;;;;;;;;;5061926;28;20210;-36
2023/05/29 08:34:59;;;;;;;5.68;3.53;;;;;;;;;;5059530;28;20212;-30
2023/05/29 08:37:27;;;;;;;4.43;3.38;;;;;;;;;;5072474;28;20203;-32
2023/05/29 08:39:55;;;;;;;4.93;3.55;;;;;;;;;;5057033;28;20237;-35
2023/05/29 08:42:23;;;;;;;4.60;3.88;;;;;;;;;;5059842;28;20258;-34
2023/05/29 08:44:50;;;;;;;5.15;3.60;;;;;;;;;;5065946;28;20207;-31
2023/05/29 08:47:20;;;;;;;3.88;3.45;;;;;;;;;;5054282;28;20224;-32
2023/05/29 08:49:49;;;;;;;4.05;3.47;;;;;;;;;;5056136;28;20211;-31
2023/05/29 08:52:17;;;;;;;5.45;3.88;;;;;;;;;;5054618;28;20217;-34
2023/05/29 08:54:46;;;;;;;4.40;3.40;;;;;;;;;;5045385;28;20295;-36
2023/05/29 08:57:14;;;;;;;6.82;3.75;;;;;;;;;;5305702;22;20306;-32
2023/05/29 08:59:43;;;;;;;4.72;3.40;;;;;;;;;;5033118;28;20221;-33
2023/05/29 09:02:11;;;;;;;4.25;3.20;;;;;;;;;;5025720;28;20212;-35
2023/05/29 09:04:39;;;;;;;4.65;3.55;;;;;;;;;;5046844;28;20213;-30
2023/05/29 09:07:08;;;;;;;4.45;3.20;;;;;;;;;;5054162;28;20260;-32
2023/05/29 09:09:36;;;;;;;3.97;3.10;;;;;;;;;;5041914;28;20295;-35
2023/05/29 09:12:04;;;;;;;5.88;3.50;;;;;;;;;;5025128;28;20228;-34
2023/05/29 09:14:35;;;;;;;4.80;2.97;;;;;;;;;;5042497;28;20211;-34
2023/05/29 09:17:03;;;;;;;7.05;3.33;;;;;;;;;;5027283;28;20603;-30
2023/05/29 09:19:30;;;;;;;3.60;2.90;;;;;;;;;;5029828;28;20592;-34
2023/05/29 09:22:04;;;;;;;4.13;3.30;;;;;;;;;;5032681;28;20215;-32
2023/05/29 09:24:37;;;;;;;4.68;2.60;;;;;;;;;;5034244;28;20209;-32
2023/05/29 09:27:07;;;;;;;4.25;2.90;;;;;;;;;;5032692;28;20275;-32
2023/05/29 09:29:35;;;;;;;4.85;2.78;;;;;;;;;;5034607;28;20216;-31
2023/05/29 09:32:02;;;;;;;7.55;2.97;;;;;;;;;;5037836;28;20208;-32
2023/05/29 09:34:32;;;;;;;3.38;2.90;;;;;;;;;;5026725;28;20202;-32
2023/05/29 09:37:07;;;;;;;8.68;3.05;;;;;;;;;;5017850;28;20226;-32
2023/05/29 09:39:35;;;;;;;7.32;3.40;;;;;;;;;;5030390;28;20218;-32
2023/05/29 09:42:02;;;;;;;4.80;3.20;;;;;;;;;;5041241;28;20213;-34
2023/05/29 09:44:32;;;;;;;6.03;2.88;;;;;;;;;;5048690;28;20203;-32
2023/05/29 09:47:00;;;;;;;5.90;2.72;;;;;;;;;;5024701;28;20230;-31
2023/05/29 09:49:27;;;;;;;4.90;2.90;;;;;;;;;;5047628;28;20225;-35
2023/05/29 09:51:55;;;;;;;4.53;2.95;;;;;;;;;;5052247;28;20414;-36
2023/05/29 09:54:22;;;;;;;5.78;2.85;;;;;;;;;;5054098;28;20209;-31
2023/05/29 09:56:49;;;;;;;3.50;2.42;;;;;;;;;;5025754;28;20325;-35
2023/05/29 09:59:18;;;;;;;4.20;2.95;;;;;;;;;;5017475;28;20521;-33
2023/05/29 10:01:46;;;;;;;5.57;2.80;;;;;;;;;;5014616;28;20208;-33
2023/05/29 10:04:13;;;;;;;4.80;3.00;;;;;;;;;;5033830;28;20213;-34
2023/05/29 10:06:43;;;;;;;4.93;2.88;;;;;;;;;;5028014;28;20235;-35
2023/05/29 10:09:11;;;;;;;7.55;2.85;;;;;;;;;;5036094;28;20211;-33
2023/05/29 10:11:41;;;;;;;5.45;3.00;;;;;;;;;;5041602;28;20650;-31
2023/05/29 10:14:11;;;;;;;5.57;3.25;;;;;;;;;;5041587;28;20211;-34
2023/05/29 10:16:42;;;;;;;3.70;2.45;;;;;;;;;;5026556;28;20224;-36
2023/05/29 10:19:13;;;;;;;4.85;3.08;;;;;;;;;;5042029;28;20206;-32
2023/05/29 10:21:41;;;;;;;4.22;2.97;;;;;;;;;;5053045;28;20208;-31
2023/05/29 10:24:09;;;;;;;4.90;2.35;;;;;;;;;;5049573;28;20212;-31
2023/05/29 10:26:37;;;;;;;3.15;2.45;;;;;;;;;;5030722;28;20231;-31
2023/05/29 10:29:07;;;;;;;3.63;2.70;;;;;;;;;;5036117;28;20207;-35
2023/05/29 10:31:39;;;;;;;3.55;2.70;;;;;;;;;;5041295;28;20204;-33
2023/05/29 10:34:16;;;;;;;6.30;2.88;;;;;;;;;;5042840;28;20214;-30
2023/05/29 10:36:46;;;;;;;3.97;2.95;;;;;;;;;;5037961;28;20219;-33
2023/05/29 10:39:14;;;;;;;4.85;2.90;;;;;;;;;;5022641;28;20217;-32
2023/05/29 10:41:42;;;;;;;3.05;2.70;;;;;;;;;;5041829;28;20184;-34
2023/05/29 10:44:24;;;;;;;5.38;2.63;;;;;;;;;;5030734;28;20197;-33
2023/05/29 10:47:12;;;;;;;3.72;2.45;;;;;;;;;;5009991;28;20246;-33
2023/05/29 10:49:40;;;;;;;5.55;2.88;;;;;;;;;;5035190;28;20238;-34
2023/05/29 10:52:08;;;;;;;3.22;2.92;;;;;;;;;;5042155;28;20217;-34
2023/05/29 10:54:42;;;;;;;5.13;2.70;;;;;;;;;;5030885;28;20216;-32
2023/05/29 10:57:10;;;;;;;3.05;2.80;;;;;;;;;;5014818;28;20271;-33
2023/05/29 10:59:38;;;;;;;5.25;2.72;;;;;;;;;;5036260;28;20226;-34
2023/05/29 11:02:06;;;;;;;4.32;2.78;;;;;;;;;;5035838;28;20204;-29
2023/05/29 11:04:34;;;;;;;3.65;2.65;;;;;;;;;;5044212;28;20204;-33
2023/05/29 11:07:06;;;;;;;4.25;2.63;;;;;;;;;;5018991;28;20231;-32
2023/05/29 11:09:34;;;;;;;4.25;2.67;;;;;;;;;;5032688;28;20223;-29
2023/05/29 11:12:12;;;;;;;3.38;2.40;;;;;;;;;;5048702;28;20259;-32
2023/05/29 11:14:46;;;;;;;6.20;2.63;;;;;;;;;;5043344;28;20213;-32
2023/05/29 11:17:28;;;;;;;7.95;2.72;;;;;;;;;;5018964;28;20634;-32
2023/05/29 11:19:56;;;;;;;3.03;2.47;;;;;;;;;;5025215;28;20231;-30
2023/05/29 11:22:28;;;;;;;5.15;2.40;;;;;;;;;;5029018;28;20207;-33
2023/05/29 11:24:57;;;;;;;5.75;2.85;;;;;;;;;;5030505;28;20191;-33
2023/05/29 11:27:25;;;;;;;5.03;2.80;;;;;;;;;;5024008;28;20226;-32
2023/05/29 11:29:54;;;;;;;2.58;2.22;;;;;;;;;;5027434;28;20278;-32
2023/05/29 11:32:23;;;;;;;3.50;2.20;;;;;;;;;;5025605;28;20765;-32
2023/05/29 11:34:51;;;;;;;6.15;2.42;;;;;;;;;;5038370;28;20214;-35
2023/05/29 11:37:18;;;;;;;3.28;2.30;;;;;;;;;;5029380;28;20231;-34
2023/05/29 11:39:47;;;;;;;4.32;2.40;;;;;;;;;;5031098;28;20226;-29
2023/05/29 11:42:14;;;;;;;3.35;2.40;;;;;;;;;;5033702;28;20211;-35
2023/05/29 11:44:41;;;;;;;4.05;2.25;;;;;;;;;;5028428;28;20204;-33
2023/05/29 11:47:16;;;;;;;3.08;2.58;;;;;;;;;;5020451;28;20236;-33
2023/05/29 11:49:43;;;;;;;4.22;1.90;;;;;;;;;;5045151;28;20248;-32
2023/05/29 11:52:10;;;;;;;5.15;2.92;;;;;;;;;;5046840;28;20260;-31
2023/05/29 11:54:37;;;;;;;3.35;2.40;;;;;;;;;;5041250;28;20220;-34
2023/05/29 11:57:06;;;;;;;4.88;2.78;;;;;;;;;;5029093;28;20232;-34
2023/05/29 11:59:33;;;;;;;3.67;2.50;;;;;;;;;;5034163;28;20199;-33
2023/05/29 12:02:01;;;;;;;6.28;2.30;;;;;;;;;;5027955;28;20282;-33
2023/05/29 12:04:28;;;;;;;4.80;2.70;;;;;;;;;;5032792;28;20204;-33
2023/05/29 12:06:55;;;;;;;2.55;2.33;;;;;;;;;;5028600;28;20240;-31
2023/05/29 12:09:26;;;;;;;4.30;2.55;;;;;;;;;;5018635;28;20200;-35
2023/05/29 12:11:53;;;;;;;2.42;2.22;;;;;;;;;;5028215;28;20201;-31
2023/05/29 12:14:22;;;;;;;3.15;2.53;;;;;;;;;;5035315;28;20208;-31
2023/05/29 12:16:49;;;;;;;3.20;2.47;;;;;;;;;;5025092;28;20232;-34
2023/05/29 12:19:16;;;;;;;3.55;2.55;;;;;;;;;;5019805;28;20774;-29
2023/05/29 12:21:44;;;;;;;4.30;2.65;;;;;;;;;;5043714;28;20231;-31
2023/05/29 12:24:11;;;;;;;5.88;2.70;;;;;;;;;;5047551;28;20223;-31
2023/05/29 12:26:38;;;;;;;4.15;3.10;;;;;;;;;;5027429;28;20301;-34
2023/05/29 12:29:06;;;;;;;2.90;2.40;;;;;;;;;;5040136;28;20214;-32
2023/05/29 12:31:34;;;;;;;4.78;2.38;;;;;;;;;;5029731;28;20214;-29
2023/05/29 12:34:02;;;;;;;4.97;2.83;;;;;;;;;;5039089;28;20236;-31
2023/05/29 12:36:30;;;;;;;3.72;2.78;;;;;;;;;;5048326;28;20224;-31
2023/05/29 12:38:58;;;;;;;5.97;2.50;;;;;;;;;;5049124;28;20282;-33
2023/05/29 12:41:44;;;;;;;3.38;2.70;;;;;;;;;;5030051;28;20233;-33
2023/05/29 12:44:12;;;;;;;2.90;2.60;;;;;;;;;;5032029;28;20219;-33
2023/05/29 12:46:42;;;;;;;4.75;3.03;;;;;;;;;;5029903;28;20225;-30
2023/05/29 12:49:13;;;;;;;4.30;2.72;;;;;;;;;;5039645;28;20208;-33
2023/05/29 12:51:42;;;;;;;4.18;2.67;;;;;;;;;;5046516;28;20657;-31
2023/05/29 12:54:10;;;;;;;3.95;2.80;;;;;;;;;;5039539;28;20206;-34
2023/05/29 12:56:39;;;;;;;3.42;2.60;;;;;;;;;;5038011;28;20289;-35
2023/05/29 12:59:06;;;;;;;3.28;2.20;;;;;;;;;;5043151;28;20208;-33
2023/05/29 13:01:33;;;;;;;4.97;2.65;;;;;;;;;;5031777;28;20223;-33
2023/05/29 13:04:03;;;;;;;4.15;2.80;;;;;;;;;;5027715;28;20217;-31
2023/05/29 13:06:30;;;;;;;2.85;2.58;;;;;;;;;;5046186;28;20275;-34
2023/05/29 13:08:57;;;;;;;6.60;2.92;;;;;;;;;;5041842;28;20220;-34
2023/05/29 13:11:25;;;;;;;5.10;2.60;;;;;;;;;;5031912;28;20203;-32
2023/05/29 13:13:52;;;;;;;3.33;2.55;;;;;;;;;;5041870;28;20607;-32
2023/05/29 13:16:19;;;;;;;2.28;2.10;;;;;;;;;;5039309;28;20232;-30
2023/05/29 13:18:46;;;;;;;4.28;3.05;;;;;;;;;;5034692;28;20209;-34
2023/05/29 13:21:15;;;;;;;3.10;2.40;;;;;;;;;;5042754;28;20215;-31
2023/05/29 13:23:42;;;;;;;3.10;2.80;;;;;;;;;;5049009;28;20228;-34
2023/05/29 13:26:09;;;;;;;5.28;2.83;;;;;;;;;;5035906;28;20228;-30
2023/05/29 13:28:37;;;;;;;2.42;2.22;;;;;;;;;;5043584;28;20207;-32
2023/05/29 13:31:04;;;;;;;3.65;2.90;;;;;;;;;;5039603;28;20208;-32
2023/05/29 13:33:31;;;;;;;3.22;2.65;;;;;;;;;;5032152;28;20206;-31
2023/05/29 13:35:58;;;;;;;3.50;2.75;;;;;;;;;;5039331;28;20235;-33
2023/05/29 13:38:26;;;;;;;5.18;2.42;;;;;;;;;;5045846;28;20242;-33
2023/05/29 13:40:54;;;;;;;2.92;2.60;;;;;;;;;;5031311;28;20225;-35
2023/05/29 13:43:21;;;;;;;4.63;3.30;;;;;;;;;;5045575;28;20543;-35
2023/05/29 13:45:48;;;;;;;3.28;2.85;;;;;;;;;;5026468;28;20837;-32
2023/05/29 13:48:15;;;;;;;10.05;2.85;;;;;;;;;;5026826;28;20201;-30
2023/05/29 13:50:42;;;;;;;5.35;2.72;;;;;;;;;;5032394;28;20200;-29
2023/05/29 13:53:09;;;;;;;2.90;2.60;;;;;;;;;;5029626;28;20213;-32
2023/05/29 13:55:38;;;;;;;3.88;2.90;;;;;;;;;;5026630;28;20233;-34
2023/05/29 13:58:05;;;;;;;6.03;3.28;;;;;;;;;;5034936;28;20219;-30
2023/05/29 14:00:32;;;;;;;3.90;2.90;;;;;;;;;;5027472;28;20233;-30
2023/05/29 14:02:59;;;;;;;4.10;2.72;;;;;;;;;;5022632;28;20216;-35
2023/05/29 14:05:26;;;;;;;3.05;2.75;;;;;;;;;;5043688;28;20231;-30
2023/05/29 14:07:56;;;;;;;2.75;2.47;;;;;;;;;;5050605;28;20207;-33
2023/05/29 14:10:24;;;;;;;4.00;3.00;;;;;;;;;;5041433;28;20206;-33
2023/05/29 14:12:52;;;;;;;4.63;3.00;;;;;;;;;;5033840;28;20220;-31
2023/05/29 14:15:19;;;;;;;3.30;2.65;;;;;;;;;;5028016;28;20339;-35
2023/05/29 14:17:46;;;;;;;2.78;2.45;;;;;;;;;;5022495;28;20213;-33
2023/05/29 14:20:13;;;;;;;4.03;2.95;;;;;;;;;;5032250;28;20216;-33
2023/05/29 14:22:40;;;;;;;3.47;2.75;;;;;;;;;;5049746;28;20230;-34
2023/05/29 14:25:08;;;;;;;3.50;2.85;;;;;;;;;;5032719;28;20216;-31
2023/05/29 14:27:35;;;;;;;3.22;2.80;;;;;;;;;;5035132;28;20208;-33
2023/05/29 14:30:04;;;;;;;3.13;2.40;;;;;;;;;;5041644;28;20219;-34
2023/05/29 14:32:31;;;;;;;4.43;2.90;;;;;;;;;;5032541;28;20287;-32
2023/05/29 14:34:58;;;;;;;3.97;3.10;;;;;;;;;;5046993;28;20205;-31
2023/05/29 14:37:25;;;;;;;3.15;2.55;;;;;;;;;;5049713;28;20261;-31
2023/05/29 14:39:52;;;;;;;2.92;2.63;;;;;;;;;;5034782;28;20222;-36
2023/05/29 14:42:19;;;;;;;4.43;2.55;;;;;;;;;;5036802;28;20224;-34
2023/05/29 14:44:46;;;;;;;4.75;2.42;;;;;;;;;;5036857;28;20208;-31
2023/05/29 14:47:15;;;;;;;2.78;2.15;;;;;;;;;;5031727;28;20509;-30
2023/05/29 14:49:42;;;;;;;4.32;2.70;;;;;;;;;;5045175;28;20208;-31